Terminal Aerodrome Forecast
Issued by NWS

Home | Current Version | Previous Version | Text Only | Print | Product List | Glossary On
Versions: 1 2 3 4 5 6 7 8 9 10 11 12 13
723
FTUS45 KTFX 111740
TAFBZN
TAF
KBZN 111740Z 1118/1218 VRB05KT P6SM SCT040 BKN150
     FM120600 15005KT P6SM VCSH BKN040
     FM121400 19005KT P6SM SCT040 BKN150=

USA.gov is the U.S. government's official web portal to all federal, state and local government web resources and services.